sensor_id;sensor_type;location;lat;lon;timestamp;P1;durP1;ratioP1;P2;durP2;ratioP2
59872;SDS011;50750;51.636;4.948;2024-01-30T00:01:00;5.30;;;4.20;;
59872;SDS011;50750;51.636;4.948;2024-01-30T00:03:47;5.00;;;3.80;;
59872;SDS011;50750;51.636;4.948;2024-01-30T00:06:19;6.10;;;3.90;;
59872;SDS011;50750;51.636;4.948;2024-01-30T00:08:50;5.20;;;3.80;;
59872;SDS011;50750;51.636;4.948;2024-01-30T00:11:21;5.70;;;4.20;;
59872;SDS011;50750;51.636;4.948;2024-01-30T00:13:53;5.20;;;4.10;;
59872;SDS011;50750;51.636;4.948;2024-01-30T00:16:24;6.30;;;4.60;;
59872;SDS011;50750;51.636;4.948;2024-01-30T00:18:55;5.20;;;4.10;;
59872;SDS011;50750;51.636;4.948;2024-01-30T00:21:25;6.00;;;4.20;;
59872;SDS011;50750;51.636;4.948;2024-01-30T00:23:55;5.80;;;3.90;;
59872;SDS011;50750;51.636;4.948;2024-01-30T00:26:25;4.60;;;3.40;;
59872;SDS011;50750;51.636;4.948;2024-01-30T00:28:55;4.80;;;3.70;;
59872;SDS011;50750;51.636;4.948;2024-01-30T00:31:26;4.90;;;3.60;;
59872;SDS011;50750;51.636;4.948;2024-01-30T00:33:57;5.40;;;3.90;;
59872;SDS011;50750;51.636;4.948;2024-01-30T00:36:27;5.20;;;3.60;;
59872;SDS011;50750;51.636;4.948;2024-01-30T00:38:57;5.00;;;3.80;;
59872;SDS011;50750;51.636;4.948;2024-01-30T00:41:28;4.90;;;3.90;;
59872;SDS011;50750;51.636;4.948;2024-01-30T00:43:58;5.60;;;4.00;;
59872;SDS011;50750;51.636;4.948;2024-01-30T00:46:28;5.40;;;4.10;;
59872;SDS011;50750;51.636;4.948;2024-01-30T00:48:58;5.10;;;3.90;;
59872;SDS011;50750;51.636;4.948;2024-01-30T00:51:29;5.80;;;4.20;;
59872;SDS011;50750;51.636;4.948;2024-01-30T00:53:59;5.30;;;4.10;;
59872;SDS011;50750;51.636;4.948;2024-01-30T00:56:30;5.70;;;3.70;;
59872;SDS011;50750;51.636;4.948;2024-01-30T00:59:00;6.00;;;4.00;;
59872;SDS011;50750;51.636;4.948;2024-01-30T01:01:30;5.00;;;4.40;;
59872;SDS011;50750;51.636;4.948;2024-01-30T01:04:01;5.00;;;4.10;;
59872;SDS011;50750;51.636;4.948;2024-01-30T01:06:31;5.50;;;3.80;;
59872;SDS011;50750;51.636;4.948;2024-01-30T01:09:01;5.40;;;3.50;;
59872;SDS011;50750;51.636;4.948;2024-01-30T01:11:32;4.60;;;3.60;;
59872;SDS011;50750;51.636;4.948;2024-01-30T01:14:03;5.00;;;3.50;;
59872;SDS011;50750;51.636;4.948;2024-01-30T01:16:33;5.90;;;4.10;;
59872;SDS011;50750;51.636;4.948;2024-01-30T01:19:05;5.50;;;4.00;;
59872;SDS011;50750;51.636;4.948;2024-01-30T01:21:35;5.70;;;3.90;;
59872;SDS011;50750;51.636;4.948;2024-01-30T01:24:05;6.20;;;4.10;;
59872;SDS011;50750;51.636;4.948;2024-01-30T01:26:35;5.90;;;3.80;;
59872;SDS011;50750;51.636;4.948;2024-01-30T01:29:06;5.80;;;3.80;;
59872;SDS011;50750;51.636;4.948;2024-01-30T01:31:39;5.70;;;3.80;;
59872;SDS011;50750;51.636;4.948;2024-01-30T01:34:11;5.30;;;3.80;;
59872;SDS011;50750;51.636;4.948;2024-01-30T01:36:41;5.70;;;4.00;;
59872;SDS011;50750;51.636;4.948;2024-01-30T01:39:11;5.60;;;4.20;;
59872;SDS011;50750;51.636;4.948;2024-01-30T01:41:42;5.10;;;3.80;;
59872;SDS011;50750;51.636;4.948;2024-01-30T01:44:12;5.20;;;3.70;;
59872;SDS011;50750;51.636;4.948;2024-01-30T01:46:42;5.70;;;3.90;;
59872;SDS011;50750;51.636;4.948;2024-01-30T01:49:13;5.00;;;3.40;;
59872;SDS011;50750;51.636;4.948;2024-01-30T01:51:43;5.30;;;3.70;;
59872;SDS011;50750;51.636;4.948;2024-01-30T01:54:15;5.30;;;3.90;;
59872;SDS011;50750;51.636;4.948;2024-01-30T01:56:47;5.50;;;3.90;;
59872;SDS011;50750;51.636;4.948;2024-01-30T01:59:17;5.50;;;3.80;;
59872;SDS011;50750;51.636;4.948;2024-01-30T02:01:48;5.90;;;3.80;;
59872;SDS011;50750;51.636;4.948;2024-01-30T02:04:22;5.00;;;3.60;;
59872;SDS011;50750;51.636;4.948;2024-01-30T02:06:52;4.40;;;3.40;;
59872;SDS011;50750;51.636;4.948;2024-01-30T02:09:22;6.40;;;3.80;;
59872;SDS011;50750;51.636;4.948;2024-01-30T02:11:52;5.80;;;4.20;;
59872;SDS011;50750;51.636;4.948;2024-01-30T02:14:23;5.30;;;4.20;;
59872;SDS011;50750;51.636;4.948;2024-01-30T02:16:54;5.00;;;3.50;;
59872;SDS011;50750;51.636;4.948;2024-01-30T02:19:24;7.10;;;3.70;;
59872;SDS011;50750;51.636;4.948;2024-01-30T02:21:54;4.90;;;3.70;;
59872;SDS011;50750;51.636;4.948;2024-01-30T02:24:25;4.30;;;3.40;;
59872;SDS011;50750;51.636;4.948;2024-01-30T02:26:55;6.70;;;3.70;;
59872;SDS011;50750;51.636;4.948;2024-01-30T02:29:25;5.10;;;3.50;;
59872;SDS011;50750;51.636;4.948;2024-01-30T02:31:55;5.50;;;3.50;;
59872;SDS011;50750;51.636;4.948;2024-01-30T02:34:26;4.20;;;3.30;;
59872;SDS011;50750;51.636;4.948;2024-01-30T02:36:56;5.40;;;3.90;;
59872;SDS011;50750;51.636;4.948;2024-01-30T02:39:26;5.70;;;3.80;;
59872;SDS011;50750;51.636;4.948;2024-01-30T02:41:56;5.40;;;4.00;;
59872;SDS011;50750;51.636;4.948;2024-01-30T02:44:26;6.20;;;3.90;;
59872;SDS011;50750;51.636;4.948;2024-01-30T02:46:57;5.20;;;3.80;;
59872;SDS011;50750;51.636;4.948;2024-01-30T02:49:27;5.60;;;3.80;;
59872;SDS011;50750;51.636;4.948;2024-01-30T02:51:57;5.20;;;3.90;;
59872;SDS011;50750;51.636;4.948;2024-01-30T02:54:27;6.30;;;4.30;;
59872;SDS011;50750;51.636;4.948;2024-01-30T02:56:58;4.70;;;3.40;;
59872;SDS011;50750;51.636;4.948;2024-01-30T02:59:28;5.10;;;3.40;;
59872;SDS011;50750;51.636;4.948;2024-01-30T03:02:00;4.30;;;2.90;;
59872;SDS011;50750;51.636;4.948;2024-01-30T03:04:31;5.70;;;3.60;;
59872;SDS011;50750;51.636;4.948;2024-01-30T03:07:01;4.80;;;3.30;;
59872;SDS011;50750;51.636;4.948;2024-01-30T03:09:32;4.30;;;3.30;;
59872;SDS011;50750;51.636;4.948;2024-01-30T03:12:02;5.20;;;3.80;;
59872;SDS011;50750;51.636;4.948;2024-01-30T03:14:34;4.60;;;3.40;;
59872;SDS011;50750;51.636;4.948;2024-01-30T03:17:05;5.20;;;3.60;;
59872;SDS011;50750;51.636;4.948;2024-01-30T03:19:35;4.70;;;3.10;;
59872;SDS011;50750;51.636;4.948;2024-01-30T03:22:05;4.90;;;3.50;;
59872;SDS011;50750;51.636;4.948;2024-01-30T03:24:35;5.90;;;3.80;;
59872;SDS011;50750;51.636;4.948;2024-01-30T03:27:06;4.90;;;3.70;;
59872;SDS011;50750;51.636;4.948;2024-01-30T03:29:36;5.30;;;4.00;;
59872;SDS011;50750;51.636;4.948;2024-01-30T03:32:06;4.20;;;3.40;;
59872;SDS011;50750;51.636;4.948;2024-01-30T03:34:36;5.30;;;3.90;;
59872;SDS011;50750;51.636;4.948;2024-01-30T03:37:07;5.70;;;3.70;;
59872;SDS011;50750;51.636;4.948;2024-01-30T03:39:37;5.10;;;3.30;;
59872;SDS011;50750;51.636;4.948;2024-01-30T03:42:07;5.30;;;3.50;;
59872;SDS011;50750;51.636;4.948;2024-01-30T03:44:37;5.90;;;3.70;;
59872;SDS011;50750;51.636;4.948;2024-01-30T03:47:08;4.90;;;3.70;;
59872;SDS011;50750;51.636;4.948;2024-01-30T03:49:38;4.80;;;3.50;;
59872;SDS011;50750;51.636;4.948;2024-01-30T03:52:09;5.50;;;3.70;;
59872;SDS011;50750;51.636;4.948;2024-01-30T03:54:39;6.00;;;3.70;;
59872;SDS011;50750;51.636;4.948;2024-01-30T03:57:09;5.30;;;4.00;;
59872;SDS011;50750;51.636;4.948;2024-01-30T03:59:42;6.80;;;3.70;;
59872;SDS011;50750;51.636;4.948;2024-01-30T04:02:12;5.00;;;3.60;;
59872;SDS011;50750;51.636;4.948;2024-01-30T04:04:42;8.80;;;3.80;;
59872;SDS011;50750;51.636;4.948;2024-01-30T04:07:13;5.00;;;3.70;;
59872;SDS011;50750;51.636;4.948;2024-01-30T04:09:43;5.20;;;3.50;;
59872;SDS011;50750;51.636;4.948;2024-01-30T04:12:13;5.00;;;3.50;;
59872;SDS011;50750;51.636;4.948;2024-01-30T04:14:44;4.80;;;3.40;;
59872;SDS011;50750;51.636;4.948;2024-01-30T04:17:14;5.20;;;3.30;;
59872;SDS011;50750;51.636;4.948;2024-01-30T04:19:44;5.30;;;3.30;;
59872;SDS011;50750;51.636;4.948;2024-01-30T04:22:15;5.70;;;3.60;;
59872;SDS011;50750;51.636;4.948;2024-01-30T04:24:45;4.90;;;3.10;;
59872;SDS011;50750;51.636;4.948;2024-01-30T04:27:15;4.60;;;3.30;;
59872;SDS011;50750;51.636;4.948;2024-01-30T04:29:45;5.30;;;3.60;;
59872;SDS011;50750;51.636;4.948;2024-01-30T04:32:17;5.00;;;3.40;;
59872;SDS011;50750;51.636;4.948;2024-01-30T04:34:47;4.80;;;3.50;;
59872;SDS011;50750;51.636;4.948;2024-01-30T04:37:17;5.50;;;3.80;;
59872;SDS011;50750;51.636;4.948;2024-01-30T04:39:47;5.30;;;3.80;;
59872;SDS011;50750;51.636;4.948;2024-01-30T04:42:18;4.50;;;3.50;;
59872;SDS011;50750;51.636;4.948;2024-01-30T04:44:49;5.40;;;3.50;;
59872;SDS011;50750;51.636;4.948;2024-01-30T04:47:19;4.60;;;3.40;;
59872;SDS011;50750;51.636;4.948;2024-01-30T04:49:51;5.30;;;3.60;;
59872;SDS011;50750;51.636;4.948;2024-01-30T04:52:21;5.10;;;3.60;;
59872;SDS011;50750;51.636;4.948;2024-01-30T04:54:51;5.20;;;3.00;;
59872;SDS011;50750;51.636;4.948;2024-01-30T04:57:21;4.30;;;3.30;;
59872;SDS011;50750;51.636;4.948;2024-01-30T04:59:52;5.20;;;3.50;;
59872;SDS011;50750;51.636;4.948;2024-01-30T05:02:22;4.50;;;3.50;;
59872;SDS011;50750;51.636;4.948;2024-01-30T05:04:52;4.50;;;3.00;;
59872;SDS011;50750;51.636;4.948;2024-01-30T05:07:22;4.70;;;3.40;;
59872;SDS011;50750;51.636;4.948;2024-01-30T05:09:54;4.70;;;3.40;;
59872;SDS011;50750;51.636;4.948;2024-01-30T05:12:24;5.00;;;3.60;;
59872;SDS011;50750;51.636;4.948;2024-01-30T05:14:54;5.00;;;3.40;;
59872;SDS011;50750;51.636;4.948;2024-01-30T05:17:24;4.30;;;3.10;;
59872;SDS011;50750;51.636;4.948;2024-01-30T05:19:55;4.90;;;3.30;;
59872;SDS011;50750;51.636;4.948;2024-01-30T05:22:25;5.90;;;3.60;;
59872;SDS011;50750;51.636;4.948;2024-01-30T05:24:55;5.30;;;3.60;;
59872;SDS011;50750;51.636;4.948;2024-01-30T05:27:26;5.20;;;3.30;;
59872;SDS011;50750;51.636;4.948;2024-01-30T05:29:56;5.70;;;3.40;;
59872;SDS011;50750;51.636;4.948;2024-01-30T05:32:26;4.80;;;3.30;;
59872;SDS011;50750;51.636;4.948;2024-01-30T05:34:56;4.80;;;3.10;;
59872;SDS011;50750;51.636;4.948;2024-01-30T05:37:27;5.30;;;3.30;;
59872;SDS011;50750;51.636;4.948;2024-01-30T05:39:57;4.60;;;2.80;;
59872;SDS011;50750;51.636;4.948;2024-01-30T05:42:28;4.80;;;3.20;;
59872;SDS011;50750;51.636;4.948;2024-01-30T05:44:58;5.10;;;3.20;;
59872;SDS011;50750;51.636;4.948;2024-01-30T05:47:28;3.90;;;3.20;;
59872;SDS011;50750;51.636;4.948;2024-01-30T05:49:59;5.00;;;3.30;;
59872;SDS011;50750;51.636;4.948;2024-01-30T05:52:29;4.90;;;3.20;;
59872;SDS011;50750;51.636;4.948;2024-01-30T05:54:59;4.60;;;3.10;;
59872;SDS011;50750;51.636;4.948;2024-01-30T05:57:30;4.30;;;3.00;;
59872;SDS011;50750;51.636;4.948;2024-01-30T06:00:00;4.60;;;3.00;;
59872;SDS011;50750;51.636;4.948;2024-01-30T06:02:31;4.30;;;3.40;;
59872;SDS011;50750;51.636;4.948;2024-01-30T06:05:01;5.80;;;3.30;;
59872;SDS011;50750;51.636;4.948;2024-01-30T06:07:32;4.60;;;3.30;;
59872;SDS011;50750;51.636;4.948;2024-01-30T06:10:03;4.40;;;2.90;;
59872;SDS011;50750;51.636;4.948;2024-01-30T06:12:36;4.60;;;3.00;;
59872;SDS011;50750;51.636;4.948;2024-01-30T06:15:07;3.80;;;2.80;;
59872;SDS011;50750;51.636;4.948;2024-01-30T06:17:40;5.00;;;3.10;;
59872;SDS011;50750;51.636;4.948;2024-01-30T06:20:10;4.50;;;3.10;;
59872;SDS011;50750;51.636;4.948;2024-01-30T06:22:40;4.20;;;3.10;;
59872;SDS011;50750;51.636;4.948;2024-01-30T06:25:11;5.80;;;3.60;;
59872;SDS011;50750;51.636;4.948;2024-01-30T06:27:41;5.30;;;3.20;;
59872;SDS011;50750;51.636;4.948;2024-01-30T06:30:12;4.80;;;3.30;;
59872;SDS011;50750;51.636;4.948;2024-01-30T06:32:43;4.80;;;3.20;;
59872;SDS011;50750;51.636;4.948;2024-01-30T06:35:13;5.20;;;3.30;;
59872;SDS011;50750;51.636;4.948;2024-01-30T06:37:45;4.60;;;3.40;;
59872;SDS011;50750;51.636;4.948;2024-01-30T06:40:15;4.90;;;3.50;;
59872;SDS011;50750;51.636;4.948;2024-01-30T06:42:45;4.40;;;3.10;;
59872;SDS011;50750;51.636;4.948;2024-01-30T06:45:15;5.20;;;2.90;;
59872;SDS011;50750;51.636;4.948;2024-01-30T06:47:45;4.00;;;2.90;;
59872;SDS011;50750;51.636;4.948;2024-01-30T06:50:16;4.70;;;3.20;;
59872;SDS011;50750;51.636;4.948;2024-01-30T06:52:46;5.30;;;3.30;;
59872;SDS011;50750;51.636;4.948;2024-01-30T06:55:16;3.70;;;2.80;;
59872;SDS011;50750;51.636;4.948;2024-01-30T06:57:46;5.90;;;3.10;;
59872;SDS011;50750;51.636;4.948;2024-01-30T07:00:17;4.70;;;3.10;;
59872;SDS011;50750;51.636;4.948;2024-01-30T07:02:49;4.80;;;3.20;;
59872;SDS011;50750;51.636;4.948;2024-01-30T07:05:19;5.10;;;3.20;;
59872;SDS011;50750;51.636;4.948;2024-01-30T07:07:50;6.60;;;3.50;;
59872;SDS011;50750;51.636;4.948;2024-01-30T07:10:20;4.60;;;3.40;;
59872;SDS011;50750;51.636;4.948;2024-01-30T07:12:50;5.40;;;3.50;;
59872;SDS011;50750;51.636;4.948;2024-01-30T07:15:21;5.60;;;3.60;;
59872;SDS011;50750;51.636;4.948;2024-01-30T07:17:52;4.70;;;3.10;;
59872;SDS011;50750;51.636;4.948;2024-01-30T07:20:22;5.00;;;3.50;;
59872;SDS011;50750;51.636;4.948;2024-01-30T07:22:52;6.30;;;3.50;;
59872;SDS011;50750;51.636;4.948;2024-01-30T07:25:22;4.70;;;3.40;;
59872;SDS011;50750;51.636;4.948;2024-01-30T07:27:54;6.20;;;3.60;;
59872;SDS011;50750;51.636;4.948;2024-01-30T07:30:24;4.80;;;3.10;;
59872;SDS011;50750;51.636;4.948;2024-01-30T07:32:55;5.20;;;3.80;;
59872;SDS011;50750;51.636;4.948;2024-01-30T07:35:25;7.60;;;3.80;;
59872;SDS011;50750;51.636;4.948;2024-01-30T07:37:55;5.60;;;3.60;;
59872;SDS011;50750;51.636;4.948;2024-01-30T07:40:25;4.70;;;3.20;;
59872;SDS011;50750;51.636;4.948;2024-01-30T07:42:55;6.10;;;3.50;;
59872;SDS011;50750;51.636;4.948;2024-01-30T07:45:26;5.40;;;3.90;;
59872;SDS011;50750;51.636;4.948;2024-01-30T07:48:00;5.60;;;3.50;;
59872;SDS011;50750;51.636;4.948;2024-01-30T07:50:30;6.20;;;3.30;;
59872;SDS011;50750;51.636;4.948;2024-01-30T07:53:00;4.70;;;3.40;;
59872;SDS011;50750;51.636;4.948;2024-01-30T07:55:30;5.80;;;3.40;;
59872;SDS011;50750;51.636;4.948;2024-01-30T07:58:01;5.30;;;3.20;;
59872;SDS011;50750;51.636;4.948;2024-01-30T08:00:32;5.00;;;3.50;;
59872;SDS011;50750;51.636;4.948;2024-01-30T08:03:03;4.10;;;3.10;;
59872;SDS011;50750;51.636;4.948;2024-01-30T08:05:34;6.30;;;3.50;;
59872;SDS011;50750;51.636;4.948;2024-01-30T08:08:06;6.20;;;3.90;;
59872;SDS011;50750;51.636;4.948;2024-01-30T08:10:37;5.80;;;3.60;;
59872;SDS011;50750;51.636;4.948;2024-01-30T08:13:07;6.90;;;3.60;;
59872;SDS011;50750;51.636;4.948;2024-01-30T08:15:37;4.90;;;3.50;;
59872;SDS011;50750;51.636;4.948;2024-01-30T08:18:07;6.70;;;3.80;;
59872;SDS011;50750;51.636;4.948;2024-01-30T08:20:38;6.60;;;4.00;;
59872;SDS011;50750;51.636;4.948;2024-01-30T08:23:08;4.90;;;3.50;;
59872;SDS011;50750;51.636;4.948;2024-01-30T08:25:38;5.60;;;3.20;;
59872;SDS011;50750;51.636;4.948;2024-01-30T08:28:09;6.10;;;3.70;;
59872;SDS011;50750;51.636;4.948;2024-01-30T08:30:39;4.30;;;3.10;;
59872;SDS011;50750;51.636;4.948;2024-01-30T08:33:09;5.20;;;3.20;;
59872;SDS011;50750;51.636;4.948;2024-01-30T08:35:40;5.70;;;3.40;;
59872;SDS011;50750;51.636;4.948;2024-01-30T08:38:10;6.40;;;3.50;;
59872;SDS011;50750;51.636;4.948;2024-01-30T08:40:41;5.20;;;3.30;;
59872;SDS011;50750;51.636;4.948;2024-01-30T08:43:12;6.10;;;3.80;;
59872;SDS011;50750;51.636;4.948;2024-01-30T08:45:43;5.30;;;3.30;;
59872;SDS011;50750;51.636;4.948;2024-01-30T08:48:13;6.00;;;3.30;;
59872;SDS011;50750;51.636;4.948;2024-01-30T08:50:45;4.70;;;3.20;;
59872;SDS011;50750;51.636;4.948;2024-01-30T08:53:15;5.60;;;3.70;;
59872;SDS011;50750;51.636;4.948;2024-01-30T08:55:46;6.10;;;3.70;;
59872;SDS011;50750;51.636;4.948;2024-01-30T08:58:16;5.00;;;3.10;;
59872;SDS011;50750;51.636;4.948;2024-01-30T09:00:46;7.70;;;3.90;;
59872;SDS011;50750;51.636;4.948;2024-01-30T09:03:19;4.90;;;2.90;;
59872;SDS011;50750;51.636;4.948;2024-01-30T09:05:49;4.50;;;3.10;;
59872;SDS011;50750;51.636;4.948;2024-01-30T09:08:19;4.80;;;3.40;;
59872;SDS011;50750;51.636;4.948;2024-01-30T09:10:50;6.10;;;3.40;;
59872;SDS011;50750;51.636;4.948;2024-01-30T09:13:20;6.80;;;3.60;;
59872;SDS011;50750;51.636;4.948;2024-01-30T09:15:50;6.00;;;3.60;;
59872;SDS011;50750;51.636;4.948;2024-01-30T09:18:21;5.70;;;3.50;;
59872;SDS011;50750;51.636;4.948;2024-01-30T09:20:51;5.30;;;3.70;;
59872;SDS011;50750;51.636;4.948;2024-01-30T09:23:21;6.00;;;3.70;;
59872;SDS011;50750;51.636;4.948;2024-01-30T09:25:51;5.30;;;3.20;;
59872;SDS011;50750;51.636;4.948;2024-01-30T09:28:22;5.90;;;3.40;;
59872;SDS011;50750;51.636;4.948;2024-01-30T09:30:52;6.00;;;3.60;;
59872;SDS011;50750;51.636;4.948;2024-01-30T09:33:22;6.20;;;3.30;;
59872;SDS011;50750;51.636;4.948;2024-01-30T09:35:52;7.40;;;3.60;;
59872;SDS011;50750;51.636;4.948;2024-01-30T09:38:22;6.60;;;4.00;;
59872;SDS011;50750;51.636;4.948;2024-01-30T09:40:53;5.80;;;3.40;;
59872;SDS011;50750;51.636;4.948;2024-01-30T09:43:24;7.30;;;3.80;;
59872;SDS011;50750;51.636;4.948;2024-01-30T09:45:59;6.40;;;3.90;;
59872;SDS011;50750;51.636;4.948;2024-01-30T09:48:31;4.80;;;3.30;;
59872;SDS011;50750;51.636;4.948;2024-01-30T09:51:03;5.50;;;3.40;;
59872;SDS011;50750;51.636;4.948;2024-01-30T09:53:34;6.70;;;3.70;;
59872;SDS011;50750;51.636;4.948;2024-01-30T09:56:06;5.40;;;3.30;;
59872;SDS011;50750;51.636;4.948;2024-01-30T09:58:37;6.20;;;3.30;;
59872;SDS011;50750;51.636;4.948;2024-01-30T10:01:08;4.30;;;3.10;;
59872;SDS011;50750;51.636;4.948;2024-01-30T10:03:38;6.30;;;4.10;;
59872;SDS011;50750;51.636;4.948;2024-01-30T10:06:08;5.80;;;3.40;;
59872;SDS011;50750;51.636;4.948;2024-01-30T10:08:39;7.70;;;3.70;;
59872;SDS011;50750;51.636;4.948;2024-01-30T10:11:10;6.40;;;3.40;;
59872;SDS011;50750;51.636;4.948;2024-01-30T10:13:41;5.00;;;3.30;;
59872;SDS011;50750;51.636;4.948;2024-01-30T10:16:14;7.20;;;3.80;;
59872;SDS011;50750;51.636;4.948;2024-01-30T10:18:45;5.40;;;3.20;;
59872;SDS011;50750;51.636;4.948;2024-01-30T10:21:16;5.80;;;3.60;;
59872;SDS011;50750;51.636;4.948;2024-01-30T10:23:46;6.30;;;3.70;;
59872;SDS011;50750;51.636;4.948;2024-01-30T10:26:17;5.30;;;3.50;;
59872;SDS011;50750;51.636;4.948;2024-01-30T10:28:47;6.10;;;4.10;;
59872;SDS011;50750;51.636;4.948;2024-01-30T10:31:18;5.60;;;3.40;;
59872;SDS011;50750;51.636;4.948;2024-01-30T10:33:49;5.70;;;3.50;;
59872;SDS011;50750;51.636;4.948;2024-01-30T10:36:19;5.10;;;3.40;;
59872;SDS011;50750;51.636;4.948;2024-01-30T10:38:57;4.90;;;3.30;;
59872;SDS011;50750;51.636;4.948;2024-01-30T10:41:30;5.50;;;3.50;;
59872;SDS011;50750;51.636;4.948;2024-01-30T10:44:08;6.60;;;3.40;;
59872;SDS011;50750;51.636;4.948;2024-01-30T10:46:39;5.40;;;3.30;;
59872;SDS011;50750;51.636;4.948;2024-01-30T10:49:14;5.40;;;3.30;;
59872;SDS011;50750;51.636;4.948;2024-01-30T10:51:45;5.30;;;3.10;;
59872;SDS011;50750;51.636;4.948;2024-01-30T10:54:16;5.60;;;3.60;;
59872;SDS011;50750;51.636;4.948;2024-01-30T10:56:48;6.00;;;3.50;;
59872;SDS011;50750;51.636;4.948;2024-01-30T10:59:19;6.00;;;3.30;;
59872;SDS011;50750;51.636;4.948;2024-01-30T11:01:51;5.00;;;3.60;;
59872;SDS011;50750;51.636;4.948;2024-01-30T11:04:22;6.00;;;3.10;;
59872;SDS011;50750;51.636;4.948;2024-01-30T11:06:53;5.80;;;3.60;;
59872;SDS011;50750;51.636;4.948;2024-01-30T11:09:23;4.60;;;3.20;;
59872;SDS011;50750;51.636;4.948;2024-01-30T11:11:58;4.80;;;3.30;;
59872;SDS011;50750;51.636;4.948;2024-01-30T11:14:29;4.80;;;3.20;;
59872;SDS011;50750;51.636;4.948;2024-01-30T11:16:59;5.80;;;3.10;;
59872;SDS011;50750;51.636;4.948;2024-01-30T11:19:32;4.40;;;3.00;;
59872;SDS011;50750;51.636;4.948;2024-01-30T11:22:02;5.10;;;3.10;;
59872;SDS011;50750;51.636;4.948;2024-01-30T11:24:38;5.30;;;3.10;;
59872;SDS011;50750;51.636;4.948;2024-01-30T11:27:10;4.70;;;3.00;;
59872;SDS011;50750;51.636;4.948;2024-01-30T11:29:41;5.10;;;3.10;;
59872;SDS011;50750;51.636;4.948;2024-01-30T11:32:16;4.40;;;3.20;;
59872;SDS011;50750;51.636;4.948;2024-01-30T11:34:52;4.40;;;2.90;;
59872;SDS011;50750;51.636;4.948;2024-01-30T11:37:22;4.60;;;2.70;;
59872;SDS011;50750;51.636;4.948;2024-01-30T11:39:55;4.40;;;2.70;;
59872;SDS011;50750;51.636;4.948;2024-01-30T11:42:27;5.00;;;2.30;;
59872;SDS011;50750;51.636;4.948;2024-01-30T11:44:57;5.00;;;2.50;;
59872;SDS011;50750;51.636;4.948;2024-01-30T11:47:30;4.30;;;2.10;;
59872;SDS011;50750;51.636;4.948;2024-01-30T11:50:03;5.00;;;2.70;;
59872;SDS011;50750;51.636;4.948;2024-01-30T11:52:35;2.90;;;2.00;;
59872;SDS011;50750;51.636;4.948;2024-01-30T11:55:06;3.60;;;2.00;;
59872;SDS011;50750;51.636;4.948;2024-01-30T11:57:38;3.30;;;2.10;;
59872;SDS011;50750;51.636;4.948;2024-01-30T12:00:15;3.20;;;2.10;;
59872;SDS011;50750;51.636;4.948;2024-01-30T12:02:49;4.00;;;2.00;;
59872;SDS011;50750;51.636;4.948;2024-01-30T12:05:23;3.60;;;2.30;;
59872;SDS011;50750;51.636;4.948;2024-01-30T12:07:54;5.40;;;2.20;;
59872;SDS011;50750;51.636;4.948;2024-01-30T12:10:26;3.90;;;2.00;;
59872;SDS011;50750;51.636;4.948;2024-01-30T12:12:56;3.50;;;1.80;;
59872;SDS011;50750;51.636;4.948;2024-01-30T12:15:28;4.50;;;2.40;;
59872;SDS011;50750;51.636;4.948;2024-01-30T12:18:05;4.80;;;1.90;;
59872;SDS011;50750;51.636;4.948;2024-01-30T12:20:36;3.60;;;1.90;;
59872;SDS011;50750;51.636;4.948;2024-01-30T12:23:06;4.00;;;1.70;;
59872;SDS011;50750;51.636;4.948;2024-01-30T12:25:37;3.20;;;1.80;;
59872;SDS011;50750;51.636;4.948;2024-01-30T12:28:07;2.70;;;1.70;;
59872;SDS011;50750;51.636;4.948;2024-01-30T12:30:39;2.70;;;1.40;;
59872;SDS011;50750;51.636;4.948;2024-01-30T12:33:15;2.40;;;1.60;;
59872;SDS011;50750;51.636;4.948;2024-01-30T12:35:47;2.50;;;1.40;;
59872;SDS011;50750;51.636;4.948;2024-01-30T12:38:17;2.50;;;1.30;;
59872;SDS011;50750;51.636;4.948;2024-01-30T12:40:47;2.90;;;1.50;;
59872;SDS011;50750;51.636;4.948;2024-01-30T12:43:18;2.60;;;1.30;;
59872;SDS011;50750;51.636;4.948;2024-01-30T12:45:48;2.60;;;1.30;;
59872;SDS011;50750;51.636;4.948;2024-01-30T12:48:18;3.10;;;1.20;;
59872;SDS011;50750;51.636;4.948;2024-01-30T12:50:48;3.20;;;1.60;;
59872;SDS011;50750;51.636;4.948;2024-01-30T12:53:19;2.30;;;1.20;;
59872;SDS011;50750;51.636;4.948;2024-01-30T12:55:49;2.50;;;1.20;;
59872;SDS011;50750;51.636;4.948;2024-01-30T12:58:21;3.80;;;1.40;;
59872;SDS011;50750;51.636;4.948;2024-01-30T13:00:52;2.20;;;1.20;;
59872;SDS011;50750;51.636;4.948;2024-01-30T13:03:23;2.20;;;1.20;;
59872;SDS011;50750;51.636;4.948;2024-01-30T13:05:53;2.20;;;1.10;;
59872;SDS011;50750;51.636;4.948;2024-01-30T13:08:23;3.00;;;1.20;;
59872;SDS011;50750;51.636;4.948;2024-01-30T13:10:54;2.70;;;1.40;;
59872;SDS011;50750;51.636;4.948;2024-01-30T13:13:24;2.70;;;1.20;;
59872;SDS011;50750;51.636;4.948;2024-01-30T13:15:54;3.40;;;1.20;;
59872;SDS011;50750;51.636;4.948;2024-01-30T13:18:24;2.70;;;1.00;;
59872;SDS011;50750;51.636;4.948;2024-01-30T13:20:54;2.20;;;1.20;;
59872;SDS011;50750;51.636;4.948;2024-01-30T13:23:25;2.90;;;1.20;;
59872;SDS011;50750;51.636;4.948;2024-01-30T13:25:55;3.80;;;1.20;;
59872;SDS011;50750;51.636;4.948;2024-01-30T13:28:26;2.20;;;1.10;;
59872;SDS011;50750;51.636;4.948;2024-01-30T13:30:56;3.40;;;1.40;;
59872;SDS011;50750;51.636;4.948;2024-01-30T13:33:27;2.30;;;1.30;;
59872;SDS011;50750;51.636;4.948;2024-01-30T13:35:57;2.90;;;1.20;;
59872;SDS011;50750;51.636;4.948;2024-01-30T13:38:27;3.70;;;1.30;;
59872;SDS011;50750;51.636;4.948;2024-01-30T13:40:58;2.80;;;1.50;;
59872;SDS011;50750;51.636;4.948;2024-01-30T13:43:28;2.40;;;1.20;;
59872;SDS011;50750;51.636;4.948;2024-01-30T13:45:59;2.90;;;1.10;;
59872;SDS011;50750;51.636;4.948;2024-01-30T13:48:29;3.80;;;1.30;;
59872;SDS011;50750;51.636;4.948;2024-01-30T13:51:00;2.40;;;1.20;;
59872;SDS011;50750;51.636;4.948;2024-01-30T13:53:30;2.90;;;1.30;;
59872;SDS011;50750;51.636;4.948;2024-01-30T13:56:00;4.30;;;1.40;;
59872;SDS011;50750;51.636;4.948;2024-01-30T13:58:32;2.70;;;1.10;;
59872;SDS011;50750;51.636;4.948;2024-01-30T14:01:03;2.90;;;1.40;;
59872;SDS011;50750;51.636;4.948;2024-01-30T14:03:34;3.00;;;1.30;;
59872;SDS011;50750;51.636;4.948;2024-01-30T14:06:04;3.20;;;1.40;;
59872;SDS011;50750;51.636;4.948;2024-01-30T14:08:35;3.30;;;1.50;;
59872;SDS011;50750;51.636;4.948;2024-01-30T14:11:05;2.50;;;1.30;;
59872;SDS011;50750;51.636;4.948;2024-01-30T14:13:36;3.10;;;1.40;;
59872;SDS011;50750;51.636;4.948;2024-01-30T14:16:06;2.90;;;1.40;;
59872;SDS011;50750;51.636;4.948;2024-01-30T14:18:37;2.80;;;1.30;;
59872;SDS011;50750;51.636;4.948;2024-01-30T14:21:08;4.20;;;1.40;;
59872;SDS011;50750;51.636;4.948;2024-01-30T14:23:39;3.60;;;1.30;;
59872;SDS011;50750;51.636;4.948;2024-01-30T14:26:09;4.00;;;1.20;;
59872;SDS011;50750;51.636;4.948;2024-01-30T14:28:39;3.20;;;1.50;;
59872;SDS011;50750;51.636;4.948;2024-01-30T14:31:11;3.60;;;1.60;;
59872;SDS011;50750;51.636;4.948;2024-01-30T14:33:42;3.30;;;1.40;;
59872;SDS011;50750;51.636;4.948;2024-01-30T14:36:12;3.70;;;1.40;;
59872;SDS011;50750;51.636;4.948;2024-01-30T14:38:42;3.50;;;1.50;;
59872;SDS011;50750;51.636;4.948;2024-01-30T14:41:13;3.60;;;1.40;;
59872;SDS011;50750;51.636;4.948;2024-01-30T14:43:43;3.80;;;1.40;;
59872;SDS011;50750;51.636;4.948;2024-01-30T14:46:13;3.40;;;1.70;;
59872;SDS011;50750;51.636;4.948;2024-01-30T14:48:43;3.10;;;1.50;;
59872;SDS011;50750;51.636;4.948;2024-01-30T14:51:14;4.50;;;1.70;;
59872;SDS011;50750;51.636;4.948;2024-01-30T14:53:44;2.40;;;1.30;;
59872;SDS011;50750;51.636;4.948;2024-01-30T14:56:14;3.50;;;1.40;;
59872;SDS011;50750;51.636;4.948;2024-01-30T14:58:45;2.90;;;1.50;;
59872;SDS011;50750;51.636;4.948;2024-01-30T15:01:15;3.60;;;1.40;;
59872;SDS011;50750;51.636;4.948;2024-01-30T15:03:46;2.40;;;1.20;;
59872;SDS011;50750;51.636;4.948;2024-01-30T15:06:18;2.90;;;1.50;;
59872;SDS011;50750;51.636;4.948;2024-01-30T15:08:51;4.00;;;1.70;;